sensor_id;sensor_type;location;lat;lon;timestamp;temperature;humidity
10889;DHT22;5497;51.388;6.780;2023-02-19T00:01:39;11.20;99.90
10889;DHT22;5497;51.388;6.780;2023-02-19T00:04:10;11.20;99.90
10889;DHT22;5497;51.388;6.780;2023-02-19T00:06:37;11.20;99.90
10889;DHT22;5497;51.388;6.780;2023-02-19T00:09:05;11.10;99.90
10889;DHT22;5497;51.388;6.780;2023-02-19T00:11:34;11.10;99.90
10889;DHT22;5497;51.388;6.780;2023-02-19T00:14:01;11.10;99.90
10889;DHT22;5497;51.388;6.780;2023-02-19T00:16:32;11.10;99.90
10889;DHT22;5497;51.388;6.780;2023-02-19T00:19:00;11.10;99.90
10889;DHT22;5497;51.388;6.780;2023-02-19T00:21:28;11.10;99.90
10889;DHT22;5497;51.388;6.780;2023-02-19T00:23:56;11.10;99.90
10889;DHT22;5497;51.388;6.780;2023-02-19T00:26:24;11.00;99.90
10889;DHT22;5497;51.388;6.780;2023-02-19T00:28:53;11.00;99.90
10889;DHT22;5497;51.388;6.780;2023-02-19T00:31:23;11.00;99.90
10889;DHT22;5497;51.388;6.780;2023-02-19T00:33:52;11.00;99.90
10889;DHT22;5497;51.388;6.780;2023-02-19T00:36:19;11.00;99.90
10889;DHT22;5497;51.388;6.780;2023-02-19T00:38:47;11.00;99.90
10889;DHT22;5497;51.388;6.780;2023-02-19T00:41:15;11.00;99.90
10889;DHT22;5497;51.388;6.780;2023-02-19T00:43:46;11.00;99.90
10889;DHT22;5497;51.388;6.780;2023-02-19T00:46:16;11.00;99.90
10889;DHT22;5497;51.388;6.780;2023-02-19T00:48:43;11.00;99.90
10889;DHT22;5497;51.388;6.780;2023-02-19T00:51:10;11.00;99.90
10889;DHT22;5497;51.388;6.780;2023-02-19T00:53:37;11.00;99.90
10889;DHT22;5497;51.388;6.780;2023-02-19T00:56:05;9.10;99.90
10889;DHT22;5497;51.388;6.780;2023-02-19T00:58:33;11.00;99.90
10889;DHT22;5497;51.388;6.780;2023-02-19T01:01:00;11.00;99.90
10889;DHT22;5497;51.388;6.780;2023-02-19T01:03:28;11.00;99.90
10889;DHT22;5497;51.388;6.780;2023-02-19T01:05:55;11.00;99.90
10889;DHT22;5497;51.388;6.780;2023-02-19T01:08:22;11.00;99.90
10889;DHT22;5497;51.388;6.780;2023-02-19T01:10:50;11.00;99.90
10889;DHT22;5497;51.388;6.780;2023-02-19T01:13:17;11.00;99.90
10889;DHT22;5497;51.388;6.780;2023-02-19T01:15:44;11.00;99.90
10889;DHT22;5497;51.388;6.780;2023-02-19T01:18:11;10.90;99.90
10889;DHT22;5497;51.388;6.780;2023-02-19T01:20:41;10.90;99.90
10889;DHT22;5497;51.388;6.780;2023-02-19T01:23:10;10.90;99.90
10889;DHT22;5497;51.388;6.780;2023-02-19T01:25:38;10.90;99.90
10889;DHT22;5497;51.388;6.780;2023-02-19T01:28:05;10.80;99.90
10889;DHT22;5497;51.388;6.780;2023-02-19T01:30:33;10.80;99.90
10889;DHT22;5497;51.388;6.780;2023-02-19T01:33:02;10.80;99.90
10889;DHT22;5497;51.388;6.780;2023-02-19T01:35:29;10.80;99.90
10889;DHT22;5497;51.388;6.780;2023-02-19T01:37:57;10.80;99.90
10889;DHT22;5497;51.388;6.780;2023-02-19T01:40:25;10.80;99.90
10889;DHT22;5497;51.388;6.780;2023-02-19T01:42:52;10.80;99.90
10889;DHT22;5497;51.388;6.780;2023-02-19T01:45:25;10.80;99.90
10889;DHT22;5497;51.388;6.780;2023-02-19T01:47:58;10.70;99.90
10889;DHT22;5497;51.388;6.780;2023-02-19T01:50:28;10.70;99.90
10889;DHT22;5497;51.388;6.780;2023-02-19T01:52:58;10.70;99.90
10889;DHT22;5497;51.388;6.780;2023-02-19T01:55:28;10.70;99.90
10889;DHT22;5497;51.388;6.780;2023-02-19T01:57:56;10.70;99.90
10889;DHT22;5497;51.388;6.780;2023-02-19T02:00:23;10.70;99.90
10889;DHT22;5497;51.388;6.780;2023-02-19T02:02:54;10.80;99.90
10889;DHT22;5497;51.388;6.780;2023-02-19T02:05:31;10.80;99.90
10889;DHT22;5497;51.388;6.780;2023-02-19T02:08:02;10.90;99.90
10889;DHT22;5497;51.388;6.780;2023-02-19T02:10:47;10.90;99.90
10889;DHT22;5497;51.388;6.780;2023-02-19T02:13:14;10.90;99.90
10889;DHT22;5497;51.388;6.780;2023-02-19T02:15:50;10.90;99.90
10889;DHT22;5497;51.388;6.780;2023-02-19T02:18:26;10.90;99.90
10889;DHT22;5497;51.388;6.780;2023-02-19T02:21:06;10.90;99.90
10889;DHT22;5497;51.388;6.780;2023-02-19T02:23:49;10.90;99.90
10889;DHT22;5497;51.388;6.780;2023-02-19T02:26:43;10.90;99.90
10889;DHT22;5497;51.388;6.780;2023-02-19T02:29:25;10.90;99.90
10889;DHT22;5497;51.388;6.780;2023-02-19T02:31:57;10.90;99.90
10889;DHT22;5497;51.388;6.780;2023-02-19T02:34:29;11.00;99.90
10889;DHT22;5497;51.388;6.780;2023-02-19T02:36:59;11.00;99.90
10889;DHT22;5497;51.388;6.780;2023-02-19T02:39:28;11.00;99.90
10889;DHT22;5497;51.388;6.780;2023-02-19T02:41:58;11.00;99.90
10889;DHT22;5497;51.388;6.780;2023-02-19T02:44:50;11.00;99.90
10889;DHT22;5497;51.388;6.780;2023-02-19T02:47:40;11.00;99.90
10889;DHT22;5497;51.388;6.780;2023-02-19T02:50:14;11.00;99.90
10889;DHT22;5497;51.388;6.780;2023-02-19T02:52:46;11.00;99.90
10889;DHT22;5497;51.388;6.780;2023-02-19T02:55:36;11.00;99.90
10889;DHT22;5497;51.388;6.780;2023-02-19T02:58:06;10.90;99.90
10889;DHT22;5497;51.388;6.780;2023-02-19T03:00:35;11.00;99.90
10889;DHT22;5497;51.388;6.780;2023-02-19T03:03:20;11.00;99.90
10889;DHT22;5497;51.388;6.780;2023-02-19T03:05:51;11.00;99.90
10889;DHT22;5497;51.388;6.780;2023-02-19T03:08:23;11.00;99.90
10889;DHT22;5497;51.388;6.780;2023-02-19T03:10:55;11.00;99.90
10889;DHT22;5497;51.388;6.780;2023-02-19T03:13:27;10.90;99.90
10889;DHT22;5497;51.388;6.780;2023-02-19T03:16:17;10.90;99.90
10889;DHT22;5497;51.388;6.780;2023-02-19T03:19:07;10.90;99.90
10889;DHT22;5497;51.388;6.780;2023-02-19T03:21:50;10.90;99.90
10889;DHT22;5497;51.388;6.780;2023-02-19T03:24:20;10.80;99.90
10889;DHT22;5497;51.388;6.780;2023-02-19T03:27:09;10.90;99.90
10889;DHT22;5497;51.388;6.780;2023-02-19T03:29:43;10.90;99.90
10889;DHT22;5497;51.388;6.780;2023-02-19T03:32:14;10.90;99.90
10889;DHT22;5497;51.388;6.780;2023-02-19T03:34:48;10.90;99.90
10889;DHT22;5497;51.388;6.780;2023-02-19T03:37:19;10.90;99.90
10889;DHT22;5497;51.388;6.780;2023-02-19T03:39:50;10.90;99.90
10889;DHT22;5497;51.388;6.780;2023-02-19T03:42:28;10.90;99.90
10889;DHT22;5497;51.388;6.780;2023-02-19T03:45:05;10.90;99.90
10889;DHT22;5497;51.388;6.780;2023-02-19T03:47:40;10.90;99.90
10889;DHT22;5497;51.388;6.780;2023-02-19T03:50:16;10.90;99.90
10889;DHT22;5497;51.388;6.780;2023-02-19T03:52:52;10.90;99.90
10889;DHT22;5497;51.388;6.780;2023-02-19T03:55:26;10.90;99.90
10889;DHT22;5497;51.388;6.780;2023-02-19T03:58:03;10.90;99.90
10889;DHT22;5497;51.388;6.780;2023-02-19T04:00:35;10.90;99.90
10889;DHT22;5497;51.388;6.780;2023-02-19T04:03:08;10.90;99.90
10889;DHT22;5497;51.388;6.780;2023-02-19T04:05:43;10.80;99.90
10889;DHT22;5497;51.388;6.780;2023-02-19T04:08:14;10.80;99.90
10889;DHT22;5497;51.388;6.780;2023-02-19T04:10:48;10.80;99.90
10889;DHT22;5497;51.388;6.780;2023-02-19T04:13:22;10.80;99.90
10889;DHT22;5497;51.388;6.780;2023-02-19T04:15:54;10.80;99.90
10889;DHT22;5497;51.388;6.780;2023-02-19T04:18:25;10.80;99.90
10889;DHT22;5497;51.388;6.780;2023-02-19T04:20:55;10.80;99.90
10889;DHT22;5497;51.388;6.780;2023-02-19T04:23:25;10.80;99.90
10889;DHT22;5497;51.388;6.780;2023-02-19T04:25:57;10.80;99.90
10889;DHT22;5497;51.388;6.780;2023-02-19T04:28:25;10.80;99.90
10889;DHT22;5497;51.388;6.780;2023-02-19T04:30:53;10.80;99.90
10889;DHT22;5497;51.388;6.780;2023-02-19T04:33:20;10.80;99.90
10889;DHT22;5497;51.388;6.780;2023-02-19T04:35:47;10.70;99.90
10889;DHT22;5497;51.388;6.780;2023-02-19T04:38:15;10.70;99.90
10889;DHT22;5497;51.388;6.780;2023-02-19T04:40:42;10.60;99.90
10889;DHT22;5497;51.388;6.780;2023-02-19T04:43:09;10.60;99.90
10889;DHT22;5497;51.388;6.780;2023-02-19T04:45:36;10.60;99.90
10889;DHT22;5497;51.388;6.780;2023-02-19T04:48:03;10.50;99.90
10889;DHT22;5497;51.388;6.780;2023-02-19T04:50:30;10.50;99.90
10889;DHT22;5497;51.388;6.780;2023-02-19T04:52:57;10.50;99.90
10889;DHT22;5497;51.388;6.780;2023-02-19T04:55:25;10.50;99.90
10889;DHT22;5497;51.388;6.780;2023-02-19T04:57:52;10.40;99.90
10889;DHT22;5497;51.388;6.780;2023-02-19T05:00:19;10.40;99.90
10889;DHT22;5497;51.388;6.780;2023-02-19T05:02:46;10.40;99.90
10889;DHT22;5497;51.388;6.780;2023-02-19T05:05:15;10.50;99.90
10889;DHT22;5497;51.388;6.780;2023-02-19T05:07:42;10.40;99.90
10889;DHT22;5497;51.388;6.780;2023-02-19T05:10:09;10.40;99.90
10889;DHT22;5497;51.388;6.780;2023-02-19T05:12:37;10.40;99.90
10889;DHT22;5497;51.388;6.780;2023-02-19T05:15:04;10.50;99.90
10889;DHT22;5497;51.388;6.780;2023-02-19T05:17:32;10.50;99.90
10889;DHT22;5497;51.388;6.780;2023-02-19T05:20:00;10.50;99.90
10889;DHT22;5497;51.388;6.780;2023-02-19T05:22:27;10.50;99.90
10889;DHT22;5497;51.388;6.780;2023-02-19T05:24:54;10.50;99.90
10889;DHT22;5497;51.388;6.780;2023-02-19T05:27:21;10.50;99.90
10889;DHT22;5497;51.388;6.780;2023-02-19T05:29:49;10.50;99.90
10889;DHT22;5497;51.388;6.780;2023-02-19T05:32:16;10.50;99.90
10889;DHT22;5497;51.388;6.780;2023-02-19T05:34:43;10.50;99.90
10889;DHT22;5497;51.388;6.780;2023-02-19T05:37:10;10.50;99.90
10889;DHT22;5497;51.388;6.780;2023-02-19T05:39:37;10.50;99.90
10889;DHT22;5497;51.388;6.780;2023-02-19T05:42:04;10.50;99.90
10889;DHT22;5497;51.388;6.780;2023-02-19T05:44:30;10.50;99.90
10889;DHT22;5497;51.388;6.780;2023-02-19T05:46:59;10.50;99.90
10889;DHT22;5497;51.388;6.780;2023-02-19T05:49:31;10.50;99.90
10889;DHT22;5497;51.388;6.780;2023-02-19T05:51:58;10.40;99.90
10889;DHT22;5497;51.388;6.780;2023-02-19T05:57:13;10.40;99.90
10889;DHT22;5497;51.388;6.780;2023-02-19T06:02:11;10.40;99.90
10889;DHT22;5497;51.388;6.780;2023-02-19T06:04:39;10.30;99.90
10889;DHT22;5497;51.388;6.780;2023-02-19T06:07:06;10.30;99.90
10889;DHT22;5497;51.388;6.780;2023-02-19T06:09:33;10.30;99.90
10889;DHT22;5497;51.388;6.780;2023-02-19T06:12:00;10.30;99.90
10889;DHT22;5497;51.388;6.780;2023-02-19T06:14:27;10.30;99.90
10889;DHT22;5497;51.388;6.780;2023-02-19T06:16:53;10.30;99.90
10889;DHT22;5497;51.388;6.780;2023-02-19T06:19:22;10.30;99.90
10889;DHT22;5497;51.388;6.780;2023-02-19T06:21:49;10.20;99.90
10889;DHT22;5497;51.388;6.780;2023-02-19T06:24:16;10.20;99.90
10889;DHT22;5497;51.388;6.780;2023-02-19T06:26:43;10.20;99.90
10889;DHT22;5497;51.388;6.780;2023-02-19T06:29:09;10.10;99.90
10889;DHT22;5497;51.388;6.780;2023-02-19T06:31:36;10.10;99.90
10889;DHT22;5497;51.388;6.780;2023-02-19T06:34:04;10.10;99.90
10889;DHT22;5497;51.388;6.780;2023-02-19T06:36:32;10.10;99.90
10889;DHT22;5497;51.388;6.780;2023-02-19T06:38:59;10.10;99.90
10889;DHT22;5497;51.388;6.780;2023-02-19T06:41:26;10.10;99.90
10889;DHT22;5497;51.388;6.780;2023-02-19T06:43:53;10.10;99.90
10889;DHT22;5497;51.388;6.780;2023-02-19T06:46:20;10.10;99.90
10889;DHT22;5497;51.388;6.780;2023-02-19T06:48:47;10.10;99.90
10889;DHT22;5497;51.388;6.780;2023-02-19T06:51:16;10.00;99.90
10889;DHT22;5497;51.388;6.780;2023-02-19T06:53:50;10.00;99.90
10889;DHT22;5497;51.388;6.780;2023-02-19T06:56:23;10.00;99.90
10889;DHT22;5497;51.388;6.780;2023-02-19T06:58:50;10.10;99.90
10889;DHT22;5497;51.388;6.780;2023-02-19T07:01:17;10.10;99.90
10889;DHT22;5497;51.388;6.780;2023-02-19T07:03:45;10.10;99.90
10889;DHT22;5497;51.388;6.780;2023-02-19T07:06:12;10.00;99.90
10889;DHT22;5497;51.388;6.780;2023-02-19T07:08:40;10.10;99.90
10889;DHT22;5497;51.388;6.780;2023-02-19T07:11:08;10.10;99.90
10889;DHT22;5497;51.388;6.780;2023-02-19T07:13:35;10.10;99.90
10889;DHT22;5497;51.388;6.780;2023-02-19T07:16:04;10.10;99.90
10889;DHT22;5497;51.388;6.780;2023-02-19T07:18:32;10.10;99.90
10889;DHT22;5497;51.388;6.780;2023-02-19T07:21:02;10.10;99.90
10889;DHT22;5497;51.388;6.780;2023-02-19T07:23:29;10.10;99.90
10889;DHT22;5497;51.388;6.780;2023-02-19T07:25:56;10.10;99.90
10889;DHT22;5497;51.388;6.780;2023-02-19T07:28:24;10.10;99.90
10889;DHT22;5497;51.388;6.780;2023-02-19T07:30:52;10.20;99.90
10889;DHT22;5497;51.388;6.780;2023-02-19T07:33:19;10.20;99.90
10889;DHT22;5497;51.388;6.780;2023-02-19T07:35:48;10.20;99.90
10889;DHT22;5497;51.388;6.780;2023-02-19T07:38:16;10.20;99.90
10889;DHT22;5497;51.388;6.780;2023-02-19T07:40:50;10.20;99.90
10889;DHT22;5497;51.388;6.780;2023-02-19T07:43:18;10.20;99.90
10889;DHT22;5497;51.388;6.780;2023-02-19T07:45:48;10.20;99.90
10889;DHT22;5497;51.388;6.780;2023-02-19T07:48:16;10.30;99.90
10889;DHT22;5497;51.388;6.780;2023-02-19T07:50:52;10.30;99.90
10889;DHT22;5497;51.388;6.780;2023-02-19T07:53:18;10.30;99.90
10889;DHT22;5497;51.388;6.780;2023-02-19T07:55:45;10.30;99.90
10889;DHT22;5497;51.388;6.780;2023-02-19T07:58:12;10.30;99.90
10889;DHT22;5497;51.388;6.780;2023-02-19T08:00:39;10.30;99.90
10889;DHT22;5497;51.388;6.780;2023-02-19T08:03:08;10.30;99.90
10889;DHT22;5497;51.388;6.780;2023-02-19T08:05:36;10.40;99.90
10889;DHT22;5497;51.388;6.780;2023-02-19T08:08:05;10.40;99.90
10889;DHT22;5497;51.388;6.780;2023-02-19T08:13:20;10.50;99.90
10889;DHT22;5497;51.388;6.780;2023-02-19T08:15:51;10.60;99.90
10889;DHT22;5497;51.388;6.780;2023-02-19T08:18:21;10.60;99.90
10889;DHT22;5497;51.388;6.780;2023-02-19T08:20:50;10.70;99.90
10889;DHT22;5497;51.388;6.780;2023-02-19T08:23:17;10.70;99.90
10889;DHT22;5497;51.388;6.780;2023-02-19T08:25:45;10.80;99.90
10889;DHT22;5497;51.388;6.780;2023-02-19T08:28:12;10.90;99.90
10889;DHT22;5497;51.388;6.780;2023-02-19T08:30:41;10.90;99.90
10889;DHT22;5497;51.388;6.780;2023-02-19T08:33:10;11.00;99.90
10889;DHT22;5497;51.388;6.780;2023-02-19T08:35:38;10.40;99.90
10889;DHT22;5497;51.388;6.780;2023-02-19T08:38:06;11.10;99.90
10889;DHT22;5497;51.388;6.780;2023-02-19T08:40:33;11.10;99.90
10889;DHT22;5497;51.388;6.780;2023-02-19T08:43:03;11.10;99.90
10889;DHT22;5497;51.388;6.780;2023-02-19T08:45:30;11.10;99.90
10889;DHT22;5497;51.388;6.780;2023-02-19T08:47:57;11.10;99.90
10889;DHT22;5497;51.388;6.780;2023-02-19T08:50:24;11.20;99.90
10889;DHT22;5497;51.388;6.780;2023-02-19T08:52:52;11.20;99.90
10889;DHT22;5497;51.388;6.780;2023-02-19T08:55:18;11.50;99.90
10889;DHT22;5497;51.388;6.780;2023-02-19T08:57:45;11.20;99.90
10889;DHT22;5497;51.388;6.780;2023-02-19T09:00:12;11.10;99.90
10889;DHT22;5497;51.388;6.780;2023-02-19T09:02:39;11.10;99.90
10889;DHT22;5497;51.388;6.780;2023-02-19T09:05:06;11.10;99.90
10889;DHT22;5497;51.388;6.780;2023-02-19T09:07:35;11.30;99.90
10889;DHT22;5497;51.388;6.780;2023-02-19T09:10:04;11.50;99.90
10889;DHT22;5497;51.388;6.780;2023-02-19T09:12:30;11.70;99.90
10889;DHT22;5497;51.388;6.780;2023-02-19T09:14:58;11.70;99.90
10889;DHT22;5497;51.388;6.780;2023-02-19T09:19:52;11.60;99.90
10889;DHT22;5497;51.388;6.780;2023-02-19T09:22:19;11.50;99.90
10889;DHT22;5497;51.388;6.780;2023-02-19T09:24:46;11.40;99.90
10889;DHT22;5497;51.388;6.780;2023-02-19T09:27:15;11.20;99.90
10889;DHT22;5497;51.388;6.780;2023-02-19T09:29:53;11.20;99.90
10889;DHT22;5497;51.388;6.780;2023-02-19T09:35:57;10.90;99.90
10889;DHT22;5497;51.388;6.780;2023-02-19T09:38:33;10.80;99.90
10889;DHT22;5497;51.388;6.780;2023-02-19T09:41:16;10.60;99.90
10889;DHT22;5497;51.388;6.780;2023-02-19T09:43:57;10.60;99.90
10889;DHT22;5497;51.388;6.780;2023-02-19T09:46:30;10.60;99.90
10889;DHT22;5497;51.388;6.780;2023-02-19T09:49:01;10.50;99.90
10889;DHT22;5497;51.388;6.780;2023-02-19T09:51:46;10.50;99.90
10889;DHT22;5497;51.388;6.780;2023-02-19T09:54:20;10.50;99.90
10889;DHT22;5497;51.388;6.780;2023-02-19T09:57:12;10.50;99.90
10889;DHT22;5497;51.388;6.780;2023-02-19T10:00:11;10.60;99.90
10889;DHT22;5497;51.388;6.780;2023-02-19T10:02:39;10.80;99.90
10889;DHT22;5497;51.388;6.780;2023-02-19T10:05:11;10.80;99.90
10889;DHT22;5497;51.388;6.780;2023-02-19T10:07:40;11.20;99.90
10889;DHT22;5497;51.388;6.780;2023-02-19T10:10:20;11.80;99.90
10889;DHT22;5497;51.388;6.780;2023-02-19T10:12:49;12.00;99.90
10889;DHT22;5497;51.388;6.780;2023-02-19T10:15:21;12.00;99.90
10889;DHT22;5497;51.388;6.780;2023-02-19T10:17:53;12.00;99.90
10889;DHT22;5497;51.388;6.780;2023-02-19T10:20:21;12.00;99.90
10889;DHT22;5497;51.388;6.780;2023-02-19T10:22:50;12.00;99.90
10889;DHT22;5497;51.388;6.780;2023-02-19T10:25:17;12.00;99.90
10889;DHT22;5497;51.388;6.780;2023-02-19T10:27:44;12.00;99.90
10889;DHT22;5497;51.388;6.780;2023-02-19T10:30:16;12.00;99.90
10889;DHT22;5497;51.388;6.780;2023-02-19T10:32:56;12.00;99.90
10889;DHT22;5497;51.388;6.780;2023-02-19T10:35:23;12.10;99.90
10889;DHT22;5497;51.388;6.780;2023-02-19T10:37:50;12.30;99.90
10889;DHT22;5497;51.388;6.780;2023-02-19T10:40:18;12.70;99.90
10889;DHT22;5497;51.388;6.780;2023-02-19T10:42:45;12.70;99.90
10889;DHT22;5497;51.388;6.780;2023-02-19T10:45:15;12.80;99.90
10889;DHT22;5497;51.388;6.780;2023-02-19T10:47:45;12.80;99.90
10889;DHT22;5497;51.388;6.780;2023-02-19T10:50:16;12.80;99.90
10889;DHT22;5497;51.388;6.780;2023-02-19T10:52:45;12.80;99.90
10889;DHT22;5497;51.388;6.780;2023-02-19T10:55:23;12.80;99.90
10889;DHT22;5497;51.388;6.780;2023-02-19T10:57:50;12.80;99.90
10889;DHT22;5497;51.388;6.780;2023-02-19T11:03:13;12.70;99.90
10889;DHT22;5497;51.388;6.780;2023-02-19T11:05:53;12.70;99.90
10889;DHT22;5497;51.388;6.780;2023-02-19T11:08:22;12.70;99.90
10889;DHT22;5497;51.388;6.780;2023-02-19T11:10:49;12.60;99.90
10889;DHT22;5497;51.388;6.780;2023-02-19T11:13:18;12.60;99.90
10889;DHT22;5497;51.388;6.780;2023-02-19T11:15:49;12.60;99.90
10889;DHT22;5497;51.388;6.780;2023-02-19T11:18:18;12.70;99.90
10889;DHT22;5497;51.388;6.780;2023-02-19T11:20:47;12.70;99.90
10889;DHT22;5497;51.388;6.780;2023-02-19T11:23:16;12.60;99.90
10889;DHT22;5497;51.388;6.780;2023-02-19T11:25:44;12.60;99.90
10889;DHT22;5497;51.388;6.780;2023-02-19T11:28:19;12.40;99.90
10889;DHT22;5497;51.388;6.780;2023-02-19T11:30:48;12.40;99.90
10889;DHT22;5497;51.388;6.780;2023-02-19T11:33:24;12.40;99.90
10889;DHT22;5497;51.388;6.780;2023-02-19T11:35:54;12.20;99.90
10889;DHT22;5497;51.388;6.780;2023-02-19T11:38:24;12.10;99.90
10889;DHT22;5497;51.388;6.780;2023-02-19T11:40:53;12.00;99.90
10889;DHT22;5497;51.388;6.780;2023-02-19T11:43:30;12.00;99.90
10889;DHT22;5497;51.388;6.780;2023-02-19T11:46:01;12.00;99.90
10889;DHT22;5497;51.388;6.780;2023-02-19T11:48:34;11.90;99.90
10889;DHT22;5497;51.388;6.780;2023-02-19T11:51:14;11.90;99.90
10889;DHT22;5497;51.388;6.780;2023-02-19T11:53:46;11.80;99.90
10889;DHT22;5497;51.388;6.780;2023-02-19T11:56:14;11.70;99.90
10889;DHT22;5497;51.388;6.780;2023-02-19T12:01:32;11.70;99.90
10889;DHT22;5497;51.388;6.780;2023-02-19T12:04:12;11.70;99.90
10889;DHT22;5497;51.388;6.780;2023-02-19T12:06:45;11.80;99.90
10889;DHT22;5497;51.388;6.780;2023-02-19T12:09:19;11.90;99.90
10889;DHT22;5497;51.388;6.780;2023-02-19T12:12:00;12.10;99.90
10889;DHT22;5497;51.388;6.780;2023-02-19T12:14:38;12.30;99.90
10889;DHT22;5497;51.388;6.780;2023-02-19T12:17:08;12.40;99.90
10889;DHT22;5497;51.388;6.780;2023-02-19T12:19:43;12.50;99.90
10889;DHT22;5497;51.388;6.780;2023-02-19T12:22:19;12.70;99.90
10889;DHT22;5497;51.388;6.780;2023-02-19T12:27:37;12.70;99.90
10889;DHT22;5497;51.388;6.780;2023-02-19T12:30:17;12.90;99.90
10889;DHT22;5497;51.388;6.780;2023-02-19T12:33:07;13.00;99.90
10889;DHT22;5497;51.388;6.780;2023-02-19T12:41:33;13.40;99.90
10889;DHT22;5497;51.388;6.780;2023-02-19T12:44:07;13.40;99.90
10889;DHT22;5497;51.388;6.780;2023-02-19T12:46:37;13.50;99.90
10889;DHT22;5497;51.388;6.780;2023-02-19T12:49:06;13.40;99.90
10889;DHT22;5497;51.388;6.780;2023-02-19T12:51:38;13.10;99.90
10889;DHT22;5497;51.388;6.780;2023-02-19T12:54:05;13.00;99.90
10889;DHT22;5497;51.388;6.780;2023-02-19T12:56:37;12.90;99.90
10889;DHT22;5497;51.388;6.780;2023-02-19T12:59:08;12.70;99.90
10889;DHT22;5497;51.388;6.780;2023-02-19T13:01:38;12.60;99.90
10889;DHT22;5497;51.388;6.780;2023-02-19T13:04:13;12.60;99.90
10889;DHT22;5497;51.388;6.780;2023-02-19T13:06:41;12.60;99.90
10889;DHT22;5497;51.388;6.780;2023-02-19T13:09:10;12.60;99.90
10889;DHT22;5497;51.388;6.780;2023-02-19T13:11:40;12.60;99.90
10889;DHT22;5497;51.388;6.780;2023-02-19T13:14:12;12.60;99.90
10889;DHT22;5497;51.388;6.780;2023-02-19T13:16:43;12.50;99.90
10889;DHT22;5497;51.388;6.780;2023-02-19T13:19:11;12.30;99.90
10889;DHT22;5497;51.388;6.780;2023-02-19T13:21:39;13.50;99.90
10889;DHT22;5497;51.388;6.780;2023-02-19T13:24:25;12.10;99.90
10889;DHT22;5497;51.388;6.780;2023-02-19T13:26:57;11.90;99.90
10889;DHT22;5497;51.388;6.780;2023-02-19T13:29:36;11.90;99.90
10889;DHT22;5497;51.388;6.780;2023-02-19T13:32:20;11.80;99.90
10889;DHT22;5497;51.388;6.780;2023-02-19T13:34:54;11.70;99.90
10889;DHT22;5497;51.388;6.780;2023-02-19T13:37:24;11.70;99.90
10889;DHT22;5497;51.388;6.780;2023-02-19T13:39:52;11.70;99.90
10889;DHT22;5497;51.388;6.780;2023-02-19T13:42:22;11.70;99.90
10889;DHT22;5497;51.388;6.780;2023-02-19T13:44:51;11.70;99.90
10889;DHT22;5497;51.388;6.780;2023-02-19T13:50:05;11.70;99.90
10889;DHT22;5497;51.388;6.780;2023-02-19T13:52:37;11.70;99.90
10889;DHT22;5497;51.388;6.780;2023-02-19T13:57:49;11.80;99.90
10889;DHT22;5497;51.388;6.780;2023-02-19T14:03:26;11.70;99.90
10889;DHT22;5497;51.388;6.780;2023-02-19T14:05:58;11.50;99.90
10889;DHT22;5497;51.388;6.780;2023-02-19T14:08:44;11.50;99.90
10889;DHT22;5497;51.388;6.780;2023-02-19T14:11:11;11.40;99.90
10889;DHT22;5497;51.388;6.780;2023-02-19T14:13:56;11.30;99.90
10889;DHT22;5497;51.388;6.780;2023-02-19T14:16:31;11.30;99.90
10889;DHT22;5497;51.388;6.780;2023-02-19T14:19:00;11.20;99.90
10889;DHT22;5497;51.388;6.780;2023-02-19T14:21:33;11.20;99.90
10889;DHT22;5497;51.388;6.780;2023-02-19T14:24:00;11.20;99.90
10889;DHT22;5497;51.388;6.780;2023-02-19T14:26:29;11.10;99.90
10889;DHT22;5497;51.388;6.780;2023-02-19T14:28:56;11.10;99.90
10889;DHT22;5497;51.388;6.780;2023-02-19T14:31:25;11.10;99.90
10889;DHT22;5497;51.388;6.780;2023-02-19T14:33:54;11.10;99.90
10889;DHT22;5497;51.388;6.780;2023-02-19T14:36:36;11.10;99.90
10889;DHT22;5497;51.388;6.780;2023-02-19T14:39:04;11.20;99.90
10889;DHT22;5497;51.388;6.780;2023-02-19T14:41:39;11.20;99.90
10889;DHT22;5497;51.388;6.780;2023-02-19T14:44:07;11.20;99.90
10889;DHT22;5497;51.388;6.780;2023-02-19T14:46:38;11.20;99.90
10889;DHT22;5497;51.388;6.780;2023-02-19T14:49:11;11.20;99.90
10889;DHT22;5497;51.388;6.780;2023-02-19T14:51:42;11.30;99.90
10889;DHT22;5497;51.388;6.780;2023-02-19T14:54:10;11.20;99.90
10889;DHT22;5497;51.388;6.780;2023-02-19T14:56:38;11.60;99.90
10889;DHT22;5497;51.388;6.780;2023-02-19T14:59:19;11.10;99.90
10889;DHT22;5497;51.388;6.780;2023-02-19T15:01:52;12.30;99.90
10889;DHT22;5497;51.388;6.780;2023-02-19T15:04:20;11.00;99.90
10889;DHT22;5497;51.388;6.780;2023-02-19T15:06:49;11.00;99.90
10889;DHT22;5497;51.388;6.780;2023-02-19T15:09:18;11.00;99.90
10889;DHT22;5497;51.388;6.780;2023-02-19T15:11:45;10.90;99.90
10889;DHT22;5497;51.388;6.780;2023-02-19T15:14:15;10.90;99.90
10889;DHT22;5497;51.388;6.780;2023-02-19T15:16:45;11.00;99.90
10889;DHT22;5497;51.388;6.780;2023-02-19T15:19:12;11.00;99.90
10889;DHT22;5497;51.388;6.780;2023-02-19T15:21:42;11.00;99.90
10889;DHT22;5497;51.388;6.780;2023-02-19T15:24:12;11.10;99.90
10889;DHT22;5497;51.388;6.780;2023-02-19T15:26:40;11.10;99.90
10889;DHT22;5497;51.388;6.780;2023-02-19T15:29:08;12.30;99.90
10889;DHT22;5497;51.388;6.780;2023-02-19T15:31:35;11.10;99.90
10889;DHT22;5497;51.388;6.780;2023-02-19T15:34:02;11.10;99.90
10889;DHT22;5497;51.388;6.780;2023-02-19T15:36:29;11.00;99.90
10889;DHT22;5497;51.388;6.780;2023-02-19T15:38:57;11.00;99.90
10889;DHT22;5497;51.388;6.780;2023-02-19T15:41:26;11.00;99.90
10889;DHT22;5497;51.388;6.780;2023-02-19T15:43:59;11.00;99.90
10889;DHT22;5497;51.388;6.780;2023-02-19T15:46:27;10.90;99.90
10889;DHT22;5497;51.388;6.780;2023-02-19T15:48:57;10.90;99.90
10889;DHT22;5497;51.388;6.780;2023-02-19T15:51:28;10.80;99.90
10889;DHT22;5497;51.388;6.780;2023-02-19T15:53:57;10.80;99.90
10889;DHT22;5497;51.388;6.780;2023-02-19T15:56:29;10.80;99.90
10889;DHT22;5497;51.388;6.780;2023-02-19T15:58:58;10.80;99.90
10889;DHT22;5497;51.388;6.780;2023-02-19T16:01:27;10.90;99.90
10889;DHT22;5497;51.388;6.780;2023-02-19T16:03:54;10.90;99.90
10889;DHT22;5497;51.388;6.780;2023-02-19T16:06:21;10.80;99.90
10889;DHT22;5497;51.388;6.780;2023-02-19T16:09:01;10.80;99.90
10889;DHT22;5497;51.388;6.780;2023-02-19T16:11:34;10.70;99.90
10889;DHT22;5497;51.388;6.780;2023-02-19T16:16:47;10.70;99.90
10889;DHT22;5497;51.388;6.780;2023-02-19T16:19:18;10.60;99.90
10889;DHT22;5497;51.388;6.780;2023-02-19T16:21:45;10.50;99.90
10889;DHT22;5497;51.388;6.780;2023-02-19T16:24:12;10.50;99.90
10889;DHT22;5497;51.388;6.780;2023-02-19T16:26:42;10.50;99.90
10889;DHT22;5497;51.388;6.780;2023-02-19T16:29:15;10.40;99.90
10889;DHT22;5497;51.388;6.780;2023-02-19T16:31:46;10.40;99.90
10889;DHT22;5497;51.388;6.780;2023-02-19T16:34:17;10.30;99.90
10889;DHT22;5497;51.388;6.780;2023-02-19T16:36:44;10.30;99.90
10889;DHT22;5497;51.388;6.780;2023-02-19T16:39:15;10.20;99.90
10889;DHT22;5497;51.388;6.780;2023-02-19T16:44:37;10.10;99.90
10889;DHT22;5497;51.388;6.780;2023-02-19T16:47:04;10.00;99.90
10889;DHT22;5497;51.388;6.780;2023-02-19T16:49:31;10.00;99.90